Time;durP1;ratioP1;P1;durP2;ratioP2;P2;SDS_P1;SDS_P2;PMS_P1;PMS_P2;Temp;Humidity;BMP_temperature;BMP_pressure;BME280_temperature;BME280_humidity;BME280_pressure;Samples;Min_cycle;Max_cycle;Signal;HPM_P1;HPM_P2
2022/01/02 00:01:58;;;;;;;15.88;6.55;;;11.50;99.90;;;;;;4962647;28;20046;-71
2022/01/02 00:04:25;;;;;;;14.88;6.50;;;11.50;99.90;;;;;;4932846;28;156923;-70
2022/01/02 00:06:54;;;;;;;16.02;6.75;;;11.50;99.90;;;;;;4961951;28;20058;-71
2022/01/02 00:09:35;;;;;;;15.50;6.57;;;11.50;99.90;;;;;;4935557;28;87129;-70
2022/01/02 00:12:09;;;;;;;17.33;7.30;;;11.50;99.90;;;;;;4938939;28;66803;-70
2022/01/02 00:14:38;;;;;;;16.35;6.72;;;11.50;99.90;;;;;;4951283;28;20528;-71
2022/01/02 00:17:06;;;;;;;17.80;7.20;;;11.50;99.90;;;;;;4932541;28;130345;-71
2022/01/02 00:19:34;;;;;;;17.00;7.78;;;11.50;99.90;;;;;;4958209;28;20046;-72
2022/01/02 00:22:04;;;;;;;19.45;7.43;;;11.40;99.90;;;;;;4949073;28;149336;-70
2022/01/02 00:24:33;;;;;;;14.10;7.03;;;11.40;99.90;;;;;;4941707;28;20379;-72
2022/01/02 00:26:59;;;;;;;17.58;7.00;;;11.40;99.90;;;;;;4935434;28;145137;-70
2022/01/02 00:29:29;;;;;;;20.10;7.70;;;11.40;99.90;;;;;;4963911;28;20055;-71
2022/01/02 00:31:55;;;;;;;19.55;7.78;;;11.30;99.90;;;;;;4962115;28;20062;-70
2022/01/02 00:34:22;;;;;;;16.17;7.80;;;11.40;99.90;;;;;;4953056;28;30941;-70
2022/01/02 00:36:48;;;;;;;17.27;7.63;;;11.40;99.90;;;;;;4947148;28;20098;-70
2022/01/02 00:39:20;;;;;;;21.13;7.85;;;11.40;99.90;;;;;;4983614;28;166898;-70
2022/01/02 00:41:54;;;;;;;20.23;7.68;;;11.40;99.90;;;;;;5023267;28;20045;-70
2022/01/02 00:44:29;;;;;;;19.98;7.55;;;11.30;99.90;;;;;;5010330;28;259387;-70
2022/01/02 00:47:07;;;;;;;15.75;7.28;;;11.40;99.90;;;;;;5021781;28;20064;-70
2022/01/02 00:49:43;;;;;;;19.85;7.97;;;11.40;99.90;;;;;;4979595;28;20046;-70
2022/01/02 00:52:19;;;;;;;16.70;8.40;;;11.40;99.90;;;;;;4985816;28;254304;-71
2022/01/02 00:54:46;;;;;;;22.15;8.50;;;11.40;99.90;;;;;;5024009;28;20053;-70
2022/01/02 00:57:17;;;;;;;18.45;7.85;;;11.40;99.90;;;;;;4990420;28;267809;-71
2022/01/02 01:00:05;;;;;;;16.60;7.13;;;11.40;99.90;;;;;;5014963;28;20049;-70
2022/01/02 01:02:55;;;;;;;16.38;6.90;;;11.40;99.90;;;;;;4984012;28;266163;-70
2022/01/02 01:05:29;;;;;;;18.55;7.47;;;11.40;99.90;;;;;;4948535;28;20511;-71
2022/01/02 01:07:57;;;;;;;18.58;7.45;;;11.40;99.90;;;;;;4942958;28;112480;-70
2022/01/02 01:10:31;;;;;;;22.92;9.30;;;11.40;99.90;;;;;;4956366;28;20055;-72
2022/01/02 01:13:01;;;;;;;18.17;8.38;;;11.40;99.90;;;;;;4933518;28;258232;-70
2022/01/02 01:15:29;;;;;;;18.45;8.30;;;11.40;99.90;;;;;;4956415;28;20043;-70
2022/01/02 01:17:58;;;;;;;19.52;8.63;;;11.40;99.90;;;;;;4943570;28;35084;-70
2022/01/02 01:20:41;;;;;;;24.83;8.30;;;11.40;99.90;;;;;;4955399;28;20063;-72
2022/01/02 01:23:14;;;;;;;21.17;8.18;;;11.40;99.90;;;;;;4940362;28;209000;-69
2022/01/02 01:25:45;;;;;;;16.77;8.57;;;11.40;99.90;;;;;;4954060;28;20050;-71
2022/01/02 01:28:12;;;;;;;19.00;8.73;;;11.40;99.90;;;;;;4952230;28;62028;-71
2022/01/02 01:30:38;;;;;;;19.38;9.10;;;11.40;99.90;;;;;;4941051;28;20082;-69
2022/01/02 01:33:04;;;;;;;21.85;9.00;;;11.30;99.90;;;;;;4849734;28;3000670;-70
2022/01/02 01:35:30;;;;;;;21.45;8.60;;;11.30;99.90;;;;;;4957484;28;20500;-71
2022/01/02 01:37:57;;;;;;;20.95;8.48;;;11.30;99.90;;;;;;4948944;28;44309;-70
2022/01/02 01:40:23;;;;;;;22.55;10.18;;;11.30;99.90;;;;;;4971050;28;20062;-70
2022/01/02 01:42:59;;;;;;;22.90;9.57;;;11.30;99.90;;;;;;4886779;28;2996554;-71
2022/01/02 01:45:29;;;;;;;21.10;9.35;;;11.30;99.90;;;;;;5023003;28;20058;-71
2022/01/02 01:48:02;;;;;;;24.67;9.57;;;11.30;99.90;;;;;;5001961;28;247113;-70
2022/01/02 01:50:36;;;;;;;21.27;9.05;;;11.30;99.90;;;;;;5008386;28;20045;-72
2022/01/02 01:53:02;;;;;;;22.35;9.68;;;11.30;99.90;;;;;;4999973;28;276177;-71
2022/01/02 01:55:29;;;;;;;18.88;8.90;;;11.30;99.90;;;;;;5023776;28;20052;-72
2022/01/02 01:57:55;;;;;;;21.58;9.75;;;11.30;99.90;;;;;;5002855;28;294927;-70
2022/01/02 02:00:22;;;;;;;19.80;9.27;;;11.30;99.90;;;;;;5022813;28;20550;-70
2022/01/02 02:02:49;;;;;;;20.35;8.77;;;11.20;99.90;;;;;;4982508;28;123830;-69
2022/01/02 02:05:18;;;;;;;23.13;10.23;;;11.20;99.90;;;;;;5019129;28;20049;-70
2022/01/02 02:07:45;;;;;;;19.55;10.05;;;11.30;99.90;;;;;;5008956;28;271714;-70
2022/01/02 02:10:28;;;;;;;23.30;10.80;;;11.20;99.90;;;;;;5024656;28;20497;-70
2022/01/02 02:12:56;;;;;;;19.88;9.60;;;11.20;99.90;;;;;;4990371;28;53650;-71
2022/01/02 02:15:24;;;;;;;21.85;9.65;;;11.30;99.90;;;;;;5025424;28;20053;-69
2022/01/02 02:17:52;;;;;;;21.50;10.75;;;11.30;99.90;;;;;;4907136;28;2994624;-69
2022/01/02 02:20:27;;;;;;;20.73;9.57;;;11.20;99.90;;;;;;5024087;28;20382;-70
2022/01/02 02:22:55;;;;;;;23.13;8.77;;;11.30;99.90;;;;;;5010871;28;299176;-70
2022/01/02 02:25:25;;;;;;;20.42;9.68;;;11.20;99.90;;;;;;5026906;28;20057;-70
2022/01/02 02:27:56;;;;;;;23.77;9.60;;;11.20;99.90;;;;;;5003901;28;273446;-69
2022/01/02 02:30:24;;;;;;;19.90;9.43;;;11.20;99.90;;;;;;5024694;28;20512;-71
2022/01/02 02:32:51;;;;;;;20.65;9.38;;;11.20;99.90;;;;;;5007378;28;257588;-70
2022/01/02 02:35:20;;;;;;;22.02;9.43;;;11.20;99.90;;;;;;5023125;28;20045;-71
2022/01/02 02:37:49;;;;;;;20.73;9.20;;;11.20;99.90;;;;;;5011153;28;38015;-70
2022/01/02 02:40:17;;;;;;;25.02;9.88;;;11.20;99.90;;;;;;5026738;28;20061;-70
2022/01/02 02:51:13;;;;;;;22.52;9.30;;;11.20;99.90;;;;;;5006525;28;20414;-70
2022/01/02 02:53:45;;;;;;;25.58;9.70;;;11.20;99.90;;;;;;5003279;28;255978;-71
2022/01/02 02:56:22;;;;;;;24.60;9.73;;;11.20;99.90;;;;;;5006538;28;20081;-70
2022/01/02 02:58:50;;;;;;;24.17;10.10;;;11.20;99.90;;;;;;4990499;28;259162;-70
2022/01/02 03:01:19;;;;;;;23.52;9.68;;;11.20;99.90;;;;;;5024210;28;20049;-70
2022/01/02 03:03:47;;;;;;;23.23;9.27;;;11.20;99.90;;;;;;5000697;28;252060;-70
2022/01/02 03:06:14;;;;;;;22.52;9.05;;;11.20;99.90;;;;;;5007050;28;20045;-70
2022/01/02 03:08:41;;;;;;;24.40;9.52;;;11.20;99.90;;;;;;4993837;28;70095;-71
2022/01/02 03:11:13;;;;;;;25.73;9.38;;;11.20;99.90;;;;;;5024022;28;20045;-70
2022/01/02 03:13:39;;;;;;;29.42;9.35;;;11.20;99.90;;;;;;5005365;28;205225;-71
2022/01/02 03:16:05;;;;;;;22.15;8.80;;;11.20;99.90;;;;;;5006244;28;20045;-70
2022/01/02 03:18:32;;;;;;;21.35;9.43;;;11.30;99.90;;;;;;5007987;28;261239;-69
2022/01/02 03:20:58;;;;;;;27.20;9.70;;;11.30;99.90;;;;;;5005782;28;20052;-71
2022/01/02 03:23:24;;;;;;;23.15;9.98;;;11.30;99.90;;;;;;4910091;28;2999832;-71
2022/01/02 03:25:53;;;;;;;21.63;9.70;;;11.30;99.90;;;;;;5007310;28;20053;-70
2022/01/02 03:28:19;;;;;;;24.25;9.07;;;11.30;99.90;;;;;;5009227;28;102409;-70
2022/01/02 03:30:45;;;;;;;27.77;10.43;;;11.30;99.90;;;;;;5023382;28;20045;-70
2022/01/02 03:33:12;;;;;;;24.73;8.75;;;11.40;99.90;;;;;;5008049;28;266458;-70
2022/01/02 03:35:38;;;;;;;23.73;9.60;;;11.30;99.90;;;;;;5023034;28;20054;-69
2022/01/02 03:38:05;;;;;;;27.23;9.55;;;11.30;99.90;;;;;;4987793;28;122217;-71
2022/01/02 03:40:34;;;;;;;27.20;9.38;;;11.40;99.90;;;;;;5025037;28;20553;-69
2022/01/02 03:43:02;;;;;;;25.92;9.80;;;11.40;99.90;;;;;;5005998;28;125890;-72
2022/01/02 03:45:29;;;;;;;19.65;8.05;;;11.40;99.90;;;;;;5022812;28;20056;-69
2022/01/02 03:47:58;;;;;;;22.30;8.15;;;11.40;99.90;;;;;;4985925;28;179806;-68
2022/01/02 03:50:24;;;;;;;28.50;9.07;;;11.40;99.90;;;;;;5006781;28;20057;-70
2022/01/02 03:52:51;;;;;;;27.65;8.77;;;11.50;99.90;;;;;;4999176;28;287722;-70
2022/01/02 03:55:17;;;;;;;21.48;8.32;;;11.50;99.90;;;;;;5020698;28;20057;-69
2022/01/02 03:57:43;;;;;;;18.83;7.32;;;11.50;99.90;;;;;;5002457;28;263829;-70
2022/01/02 04:00:13;;;;;;;25.95;7.97;;;11.50;99.90;;;;;;5023929;28;20064;-69
2022/01/02 04:02:39;;;;;;;26.13;7.88;;;11.60;99.90;;;;;;4996774;28;275692;-70
2022/01/02 04:05:12;;;;;;;23.73;7.75;;;11.50;99.90;;;;;;5024514;28;20061;-70
2022/01/02 04:07:38;;;;;;;24.40;7.60;;;11.50;99.90;;;;;;5003884;28;264547;-70
2022/01/02 04:10:07;;;;;;;26.15;7.35;;;11.50;99.90;;;;;;5025250;28;20041;-70
2022/01/02 04:12:36;;;;;;;25.58;7.93;;;11.50;99.90;;;;;;5003355;28;278447;-70
2022/01/02 04:15:05;;;;;;;22.38;8.23;;;11.50;99.90;;;;;;5005133;28;20041;-72
2022/01/02 04:17:34;;;;;;;22.65;7.88;;;11.50;99.90;;;;;;5004749;28;271890;-70
2022/01/02 04:20:01;;;;;;;20.73;7.35;;;11.50;99.90;;;;;;5020323;28;20038;-70
2022/01/02 04:22:27;;;;;;;21.55;7.72;;;11.50;99.90;;;;;;4988338;28;156679;-70
2022/01/02 04:24:53;;;;;;;23.17;7.72;;;11.50;99.90;;;;;;5004664;28;20057;-70
2022/01/02 04:27:20;;;;;;;25.17;8.15;;;11.40;99.90;;;;;;4985344;28;267650;-70
2022/01/02 04:29:50;;;;;;;23.80;7.53;;;11.50;99.90;;;;;;4991244;28;20052;-70
2022/01/02 04:32:16;;;;;;;25.77;8.23;;;11.50;99.90;;;;;;4988418;28;254576;-71
2022/01/02 04:34:43;;;;;;;22.05;7.85;;;11.40;99.90;;;;;;5002234;28;20056;-70
2022/01/02 04:37:13;;;;;;;22.95;7.43;;;11.40;99.90;;;;;;5003826;28;273750;-70
2022/01/02 04:39:40;;;;;;;24.40;7.93;;;11.50;99.90;;;;;;5023959;28;20057;-69
2022/01/02 04:42:10;;;;;;;24.60;7.72;;;11.40;99.90;;;;;;5002589;28;259615;-70
2022/01/02 04:44:36;;;;;;;18.67;7.57;;;11.40;99.90;;;;;;5021819;28;20048;-70
2022/01/02 04:47:03;;;;;;;26.33;7.85;;;11.40;99.90;;;;;;5006984;28;252550;-70
2022/01/02 04:49:31;;;;;;;24.80;7.55;;;11.40;99.90;;;;;;5019990;28;20474;-71
2022/01/02 04:51:58;;;;;;;22.67;7.20;;;11.40;99.90;;;;;;5021980;28;20360;-70
2022/01/02 04:54:24;;;;;;;23.60;7.68;;;11.40;99.90;;;;;;5006519;28;295596;-69
2022/01/02 04:56:51;;;;;;;24.08;7.70;;;11.50;99.90;;;;;;5024902;28;20058;-70
2022/01/02 04:59:18;;;;;;;18.98;7.07;;;11.40;99.90;;;;;;5002178;28;256791;-69
2022/01/02 05:01:44;;;;;;;24.20;7.35;;;11.40;99.90;;;;;;5028889;28;20056;-69
2022/01/02 05:04:11;;;;;;;22.40;8.13;;;11.50;99.90;;;;;;5001830;28;254675;-70
2022/01/02 05:06:38;;;;;;;20.70;6.63;;;11.50;99.90;;;;;;5026322;28;20126;-71
2022/01/02 05:09:05;;;;;;;24.00;7.43;;;11.50;99.90;;;;;;4989678;28;206807;-70
2022/01/02 05:11:31;;;;;;;20.88;6.50;;;11.50;99.90;;;;;;5008109;28;20123;-70
2022/01/02 05:14:00;;;;;;;25.50;7.35;;;11.50;99.90;;;;;;4992002;28;55154;-70
2022/01/02 05:16:26;;;;;;;20.17;6.70;;;11.50;99.90;;;;;;5030059;28;20045;-70
2022/01/02 05:18:52;;;;;;;22.27;6.40;;;11.50;99.90;;;;;;5015156;28;266636;-70
2022/01/02 05:21:19;;;;;;;24.45;6.55;;;11.50;99.90;;;;;;5028459;28;20479;-70
2022/01/02 05:23:48;;;;;;;24.38;6.65;;;11.50;99.90;;;;;;5001590;28;255895;-69
2022/01/02 05:26:15;;;;;;;21.25;6.65;;;11.50;99.90;;;;;;5025700;28;20046;-70
2022/01/02 05:28:41;;;;;;;21.02;7.03;;;11.60;99.90;;;;;;5003719;28;256487;-70
2022/01/02 05:31:07;;;;;;;23.52;7.07;;;11.60;99.90;;;;;;5029932;28;20042;-70
2022/01/02 05:33:33;;;;;;;20.98;6.57;;;11.60;99.90;;;;;;5007391;28;150399;-69
2022/01/02 05:35:59;;;;;;;25.45;6.90;;;11.60;99.90;;;;;;5024418;28;20045;-71
2022/01/02 05:38:26;;;;;;;19.63;6.55;;;11.60;99.90;;;;;;5006246;28;257586;-70
2022/01/02 05:40:53;;;;;;;27.83;6.88;;;11.60;99.90;;;;;;5023380;28;20057;-70
2022/01/02 05:43:19;;;;;;;20.30;5.80;;;11.60;99.90;;;;;;5003381;28;264734;-69
2022/01/02 05:45:45;;;;;;;21.70;7.00;;;11.60;99.90;;;;;;5020577;28;20072;-69
2022/01/02 05:48:11;;;;;;;24.23;6.72;;;11.60;99.90;;;;;;5000581;28;298389;-69
2022/01/02 05:50:37;;;;;;;19.88;5.88;;;11.60;99.90;;;;;;5024751;28;20041;-69
2022/01/02 05:53:03;;;;;;;23.13;6.55;;;11.70;99.90;;;;;;5008552;28;236814;-70
2022/01/02 05:55:30;;;;;;;20.05;6.10;;;11.70;99.90;;;;;;5008183;28;20049;-69
2022/01/02 05:57:56;;;;;;;22.75;6.05;;;11.70;99.90;;;;;;5008142;28;199981;-71
2022/01/02 06:00:22;;;;;;;19.52;5.78;;;11.70;99.90;;;;;;5023066;28;20076;-70
2022/01/02 06:02:48;;;;;;;21.65;5.55;;;11.70;99.90;;;;;;4996522;28;253781;-70
2022/01/02 06:05:14;;;;;;;27.08;6.15;;;11.70;99.90;;;;;;4995381;28;20092;-71
2022/01/02 06:07:40;;;;;;;19.27;5.63;;;11.70;99.90;;;;;;5005107;28;267803;-70
2022/01/02 06:10:09;;;;;;;31.55;6.35;;;11.70;99.90;;;;;;5021816;28;20068;-70
2022/01/02 06:12:36;;;;;;;19.45;5.32;;;11.70;99.90;;;;;;5001160;28;195450;-69
2022/01/02 06:15:03;;;;;;;21.77;5.30;;;11.70;99.90;;;;;;5019987;28;20763;-70
2022/01/02 06:17:29;;;;;;;20.25;5.45;;;11.80;99.90;;;;;;5014662;28;239903;-70
2022/01/02 06:19:55;;;;;;;21.63;5.38;;;11.80;99.90;;;;;;5007704;28;20068;-69
2022/01/02 06:22:21;;;;;;;19.70;5.35;;;11.80;99.90;;;;;;5007248;28;261038;-70
2022/01/02 06:24:47;;;;;;;16.10;5.20;;;11.80;99.90;;;;;;5023914;28;20398;-70
2022/01/02 06:27:13;;;;;;;18.58;5.13;;;11.80;99.90;;;;;;5008177;28;262213;-70
2022/01/02 06:29:39;;;;;;;19.45;5.05;;;11.80;99.90;;;;;;5020197;28;20045;-71
2022/01/02 06:32:05;;;;;;;18.00;4.38;;;11.90;99.90;;;;;;5009746;28;225909;-70
2022/01/02 06:34:31;;;;;;;21.35;5.03;;;11.90;99.90;;;;;;5025808;28;20068;-70
2022/01/02 06:36:58;;;;;;;15.85;5.18;;;11.90;99.90;;;;;;5006916;28;20064;-70
2022/01/02 06:39:24;;;;;;;19.10;4.82;;;11.90;99.90;;;;;;4909787;28;3003690;-70
2022/01/02 06:41:51;;;;;;;19.70;5.03;;;11.90;99.90;;;;;;5026677;28;20506;-71
2022/01/02 06:44:17;;;;;;;17.10;3.88;;;11.90;99.90;;;;;;5012705;28;185576;-69
2022/01/02 06:46:43;;;;;;;18.10;4.38;;;12.00;99.90;;;;;;5009079;28;20062;-69
2022/01/02 06:49:09;;;;;;;15.82;3.60;;;12.00;99.90;;;;;;5007324;28;259831;-71
2022/01/02 06:51:36;;;;;;;15.23;4.25;;;12.00;99.90;;;;;;5029457;28;20084;-71
2022/01/02 06:54:02;;;;;;;13.80;4.28;;;12.00;99.90;;;;;;5001859;28;297917;-71
2022/01/02 06:56:28;;;;;;;15.40;4.07;;;12.00;99.90;;;;;;5027415;28;20218;-70
2022/01/02 06:58:54;;;;;;;14.85;3.83;;;12.10;99.90;;;;;;4909441;28;2995271;-71
2022/01/02 07:01:20;;;;;;;19.13;4.18;;;12.10;99.90;;;;;;5025396;28;20694;-70
2022/01/02 07:03:46;;;;;;;15.77;3.78;;;12.10;99.90;;;;;;4998094;28;141457;-70
2022/01/02 07:06:12;;;;;;;17.45;4.03;;;12.10;99.90;;;;;;5024301;28;20052;-70
2022/01/02 07:08:38;;;;;;;15.15;4.00;;;12.10;99.90;;;;;;5000975;28;257762;-70
2022/01/02 07:11:05;;;;;;;13.68;3.70;;;12.10;99.90;;;;;;5022601;28;20069;-69
2022/01/02 07:13:31;;;;;;;16.45;4.00;;;12.10;99.90;;;;;;4989512;28;93488;-71
2022/01/02 07:15:57;;;;;;;18.08;3.90;;;12.10;99.90;;;;;;5025738;28;20041;-70
2022/01/02 07:18:23;;;;;;;16.48;4.22;;;12.10;99.90;;;;;;5004213;28;270233;-69
2022/01/02 07:20:49;;;;;;;17.13;3.90;;;12.10;99.90;;;;;;5022705;28;20057;-70
2022/01/02 07:23:16;;;;;;;13.38;4.35;;;12.10;99.90;;;;;;4996765;28;41236;-70
2022/01/02 07:25:42;;;;;;;13.45;3.70;;;12.00;99.90;;;;;;5005494;28;20068;-69
2022/01/02 07:28:08;;;;;;;14.35;3.70;;;12.00;99.90;;;;;;5008325;28;280929;-71
2022/01/02 07:30:34;;;;;;;15.77;4.20;;;12.00;99.90;;;;;;5009802;28;20056;-69
2022/01/02 07:33:01;;;;;;;15.95;4.22;;;12.00;99.90;;;;;;5004180;28;273455;-69
2022/01/02 07:35:31;;;;;;;15.27;4.25;;;12.00;99.90;;;;;;5025735;28;20502;-70
2022/01/02 07:37:58;;;;;;;14.65;4.43;;;12.00;99.90;;;;;;5010429;28;28937;-69
2022/01/02 07:40:25;;;;;;;13.63;3.92;;;11.90;99.90;;;;;;5025085;28;20060;-71
2022/01/02 07:42:54;;;;;;;19.13;5.05;;;11.90;99.90;;;;;;5000925;28;54287;-69
2022/01/02 07:45:23;;;;;;;20.30;4.50;;;11.90;99.90;;;;;;5003074;28;20058;-71
2022/01/02 07:47:49;;;;;;;19.20;4.35;;;11.90;99.90;;;;;;5005071;28;269621;-68
2022/01/02 07:50:15;;;;;;;19.10;4.60;;;11.80;99.90;;;;;;5020598;28;20224;-70
2022/01/02 07:52:41;;;;;;;17.05;4.63;;;11.80;99.90;;;;;;5006782;28;259921;-70
2022/01/02 07:55:07;;;;;;;14.10;4.70;;;11.80;99.90;;;;;;5013129;28;20056;-70
2022/01/02 07:57:35;;;;;;;17.90;5.10;;;11.80;99.90;;;;;;5006069;28;29816;-70
2022/01/02 08:00:02;;;;;;;15.45;4.85;;;11.80;99.90;;;;;;5028141;28;20057;-70
2022/01/02 08:02:31;;;;;;;14.50;4.72;;;11.70;99.90;;;;;;4983723;28;127747;-70
2022/01/02 08:04:57;;;;;;;15.63;4.68;;;11.80;99.90;;;;;;5001953;28;20053;-71
2022/01/02 08:07:24;;;;;;;13.60;4.50;;;11.70;99.90;;;;;;5006079;28;261359;-70
2022/01/02 08:09:50;;;;;;;17.10;4.82;;;11.80;99.90;;;;;;5023497;28;20061;-72
2022/01/02 08:12:16;;;;;;;12.85;4.43;;;11.80;99.90;;;;;;5006329;28;278461;-71
2022/01/02 08:14:42;;;;;;;15.57;4.70;;;11.70;99.90;;;;;;5006515;28;20103;-70
2022/01/02 08:17:08;;;;;;;14.77;4.90;;;11.70;99.90;;;;;;5002571;28;270069;-69
2022/01/02 08:19:34;;;;;;;16.42;4.75;;;11.70;99.90;;;;;;5021919;28;20542;-70
2022/01/02 08:22:00;;;;;;;14.68;5.00;;;11.60;99.90;;;;;;5011528;28;257052;-71
2022/01/02 08:24:26;;;;;;;12.82;4.97;;;11.60;99.90;;;;;;5013168;28;20399;-70
2022/01/02 08:26:52;;;;;;;15.50;5.15;;;11.60;99.90;;;;;;5026211;28;20049;-69
2022/01/02 08:29:19;;;;;;;17.30;5.35;;;11.60;99.90;;;;;;4999164;28;256819;-71
2022/01/02 08:31:45;;;;;;;17.90;5.43;;;11.60;99.90;;;;;;5028431;28;20045;-69
2022/01/02 08:34:17;;;;;;;16.40;5.88;;;11.50;99.90;;;;;;5001239;28;259076;-69
2022/01/02 08:36:43;;;;;;;15.45;4.80;;;11.50;99.90;;;;;;5026198;28;20514;-68
2022/01/02 08:39:09;;;;;;;14.45;5.07;;;11.50;99.90;;;;;;5005845;28;255591;-69
2022/01/02 08:41:35;;;;;;;14.93;4.82;;;11.50;99.90;;;;;;5030281;28;20049;-69
2022/01/02 08:44:01;;;;;;;14.70;4.80;;;11.50;99.90;;;;;;5004024;28;267556;-70
2022/01/02 08:46:28;;;;;;;16.67;5.03;;;11.50;99.90;;;;;;5024342;28;20398;-69
2022/01/02 08:48:54;;;;;;;15.35;4.63;;;11.60;99.90;;;;;;5007035;28;253812;-70
2022/01/02 08:51:20;;;;;;;13.55;4.72;;;11.60;99.90;;;;;;5028545;28;20053;-69
2022/01/02 08:53:46;;;;;;;18.65;5.05;;;11.60;99.90;;;;;;5007161;28;263564;-70
2022/01/02 08:56:13;;;;;;;13.77;5.18;;;11.60;99.90;;;;;;5030540;28;20071;-69
2022/01/02 08:58:39;;;;;;;19.67;5.50;;;11.50;99.90;;;;;;4999040;28;277052;-70
2022/01/02 09:01:06;;;;;;;16.40;5.45;;;11.50;99.90;;;;;;5020950;28;20060;-68
2022/01/02 09:03:33;;;;;;;15.80;5.30;;;11.50;99.90;;;;;;4987756;28;272536;-70
2022/01/02 09:05:59;;;;;;;16.20;5.22;;;11.50;99.90;;;;;;5027766;28;20053;-69
2022/01/02 09:08:28;;;;;;;16.05;5.63;;;11.40;99.90;;;;;;4999547;28;268843;-69
2022/01/02 09:10:55;;;;;;;18.38;5.70;;;11.40;99.90;;;;;;5022591;28;20084;-72
2022/01/02 09:13:23;;;;;;;14.90;5.07;;;11.40;99.90;;;;;;5003918;28;262160;-70
2022/01/02 09:15:50;;;;;;;14.25;5.65;;;11.40;99.90;;;;;;5025338;28;20058;-70
2022/01/02 09:18:16;;;;;;;13.55;5.80;;;11.30;99.90;;;;;;4998209;28;20045;-69
2022/01/02 09:20:43;;;;;;;20.42;5.82;;;11.40;99.90;;;;;;5020919;28;20049;-70
2022/01/02 09:23:10;;;;;;;17.52;5.47;;;11.40;99.90;;;;;;5011190;28;251046;-70
2022/01/02 09:25:36;;;;;;;18.23;5.13;;;11.40;99.90;;;;;;5010704;28;20060;-69
2022/01/02 09:28:02;;;;;;;18.33;5.40;;;11.40;99.90;;;;;;5006382;28;258305;-69
2022/01/02 09:30:28;;;;;;;14.55;5.38;;;11.40;99.90;;;;;;5046478;28;20037;-70
2022/01/02 09:32:55;;;;;;;12.73;5.32;;;11.40;99.90;;;;;;5014074;28;262387;-70
2022/01/02 09:35:25;;;;;;;16.00;5.07;;;11.50;99.90;;;;;;5021667;28;20398;-71
2022/01/02 09:37:51;;;;;;;13.98;5.20;;;11.50;99.90;;;;;;4994864;28;221868;-69
2022/01/02 09:40:18;;;;;;;16.60;5.53;;;11.60;99.90;;;;;;5022203;28;20058;-70
2022/01/02 09:42:44;;;;;;;14.10;5.18;;;11.60;99.90;;;;;;5001300;28;265592;-69
2022/01/02 09:45:11;;;;;;;15.93;4.65;;;11.60;99.90;;;;;;5026937;28;20037;-71
2022/01/02 09:47:38;;;;;;;16.63;5.18;;;11.70;99.90;;;;;;5005440;28;266916;-70
2022/01/02 09:50:06;;;;;;;16.67;5.22;;;11.70;99.90;;;;;;5025953;28;20113;-71
2022/01/02 09:52:33;;;;;;;14.68;5.28;;;11.80;99.90;;;;;;5005128;28;255444;-69
2022/01/02 09:55:02;;;;;;;18.48;5.35;;;11.90;99.90;;;;;;5025712;28;20121;-70
2022/01/02 09:57:29;;;;;;;14.30;5.28;;;11.90;99.90;;;;;;5005845;28;277998;-70
2022/01/02 09:59:56;;;;;;;14.35;5.10;;;11.90;99.90;;;;;;5011419;28;20057;-69
2022/01/02 10:02:23;;;;;;;15.88;5.57;;;11.90;99.90;;;;;;4981623;28;248206;-70
2022/01/02 10:05:00;;;;;;;13.25;5.50;;;11.90;99.90;;;;;;5022101;28;20045;-71
2022/01/02 10:07:37;;;;;;;13.23;5.05;;;12.00;99.90;;;;;;5010164;28;268571;-69
2022/01/02 10:10:11;;;;;;;16.60;5.55;;;12.00;99.90;;;;;;5022686;28;20073;-69
2022/01/02 10:12:37;;;;;;;14.23;5.40;;;12.00;99.90;;;;;;5010551;28;118523;-70
2022/01/02 10:15:06;;;;;;;13.55;5.40;;;12.00;99.90;;;;;;5027533;28;20053;-70
2022/01/02 10:18:09;;;;;;;18.10;5.38;;;12.00;99.90;;;;;;5008774;28;268864;-69
2022/01/02 10:20:40;;;;;;;15.73;5.07;;;12.00;99.90;;;;;;5025051;28;20073;-71
2022/01/02 10:23:24;;;;;;;15.65;5.25;;;12.00;99.90;;;;;;5007502;28;257548;-71
2022/01/02 10:25:57;;;;;;;13.75;5.60;;;12.00;99.90;;;;;;5023166;28;20332;-69
2022/01/02 10:28:25;;;;;;;14.52;5.75;;;12.00;99.90;;;;;;4997879;28;85300;-71
2022/01/02 10:30:55;;;;;;;14.05;5.30;;;12.10;99.90;;;;;;5026544;28;20054;-70
2022/01/02 10:33:21;;;;;;;17.95;5.60;;;12.00;99.90;;;;;;5009369;28;163358;-70
2022/01/02 10:35:54;;;;;;;15.90;5.85;;;12.00;99.90;;;;;;5023973;28;20052;-69
2022/01/02 10:38:20;;;;;;;17.00;6.13;;;12.00;99.90;;;;;;5008834;28;267680;-71
2022/01/02 10:40:47;;;;;;;15.57;6.55;;;12.00;99.90;;;;;;5023518;28;20076;-68
2022/01/02 10:43:31;;;;;;;16.63;6.05;;;12.00;99.90;;;;;;5003188;28;271701;-70
2022/01/02 10:46:06;;;;;;;16.65;6.13;;;12.00;99.90;;;;;;5004844;28;20502;-70
2022/01/02 10:48:35;;;;;;;16.90;6.05;;;12.00;99.90;;;;;;4986148;28;213611;-68
2022/01/02 10:51:09;;;;;;;13.68;5.75;;;12.00;99.90;;;;;;5029506;28;20052;-70
2022/01/02 10:53:37;;;;;;;15.10;5.63;;;12.00;99.90;;;;;;5003898;28;23788;-69
2022/01/02 10:56:06;;;;;;;16.42;6.22;;;12.00;99.90;;;;;;5028901;28;20521;-68
2022/01/02 10:58:35;;;;;;;17.48;7.00;;;12.00;99.90;;;;;;5012729;28;264740;-68
2022/01/02 11:01:06;;;;;;;14.13;6.00;;;12.00;99.90;;;;;;5021486;28;20061;-69
2022/01/02 11:03:33;;;;;;;13.30;5.80;;;12.00;99.90;;;;;;4985267;28;275840;-69
2022/01/02 11:06:06;;;;;;;13.95;5.07;;;12.00;99.90;;;;;;5023603;28;20060;-70
2022/01/02 11:08:35;;;;;;;15.20;6.03;;;12.00;99.90;;;;;;5005703;28;254822;-69
2022/01/02 11:11:02;;;;;;;15.20;5.90;;;12.00;99.90;;;;;;5007836;28;20502;-68
2022/01/02 11:13:30;;;;;;;16.00;5.80;;;12.10;99.90;;;;;;5000249;28;84937;-70
2022/01/02 11:16:02;;;;;;;12.52;5.18;;;12.10;99.90;;;;;;5020330;28;20064;-69
2022/01/02 11:18:33;;;;;;;13.30;5.32;;;12.10;99.90;;;;;;5003542;28;258693;-69
2022/01/02 11:21:09;;;;;;;14.77;5.65;;;12.10;99.90;;;;;;5026940;28;20056;-69
2022/01/02 11:24:26;;;;;;;12.85;5.30;;;12.10;99.90;;;;;;5004922;28;261027;-69
2022/01/02 11:27:10;;;;;;;12.68;5.25;;;12.10;99.90;;;;;;4983264;28;20054;-68
2022/01/02 11:29:36;;;;;;;14.65;6.13;;;12.00;99.90;;;;;;4955229;28;20058;-69
2022/01/02 11:32:24;;;;;;;15.30;5.40;;;12.00;99.90;;;;;;4972994;28;44562;-69
2022/01/02 11:34:51;;;;;;;18.10;5.80;;;12.00;99.90;;;;;;4965827;28;20062;-68
2022/01/02 11:37:21;;;;;;;14.25;4.95;;;12.00;99.90;;;;;;4955921;28;55619;-68
2022/01/02 11:39:52;;;;;;;15.23;5.18;;;12.00;99.90;;;;;;4984099;28;20042;-69
2022/01/02 11:42:42;;;;;;;17.63;4.78;;;12.00;99.90;;;;;;4968715;28;130356;-69
2022/01/02 11:45:23;;;;;;;12.88;4.70;;;12.00;99.90;;;;;;5043183;23;20057;-81
2022/01/02 11:47:49;;;;;;;;;;;12.10;99.90;;;;;;5038745;28;144883;-81
2022/01/02 11:50:31;;;;;;;19.40;5.20;;;12.10;99.90;;;;;;5042797;28;20686;-80
2022/01/02 11:53:09;;;;;;;;;;;12.10;99.90;;;;;;5037758;28;275961;-81
2022/01/02 11:55:35;;;;;;;15.32;4.20;;;12.10;99.90;;;;;;5047869;28;19924;-80
2022/01/02 11:58:02;;;;;;;13.38;3.85;;;12.10;99.90;;;;;;5056837;28;20055;-81
2022/01/02 12:00:44;;;;;;;21.25;4.28;;;12.10;99.90;;;;;;5049477;28;20380;-81
2022/01/02 12:03:40;;;;;;;13.10;3.58;;;12.10;99.90;;;;;;5030791;28;154638;-80
2022/01/02 12:06:17;;;;;;;14.35;3.28;;;12.10;99.90;;;;;;5077221;28;20528;-80
2022/01/02 12:08:44;;;;;;;17.25;3.50;;;12.10;99.90;;;;;;5066728;28;174800;-81
2022/01/02 12:11:32;;;;;;;17.63;4.07;;;12.00;99.90;;;;;;5102532;28;20078;-82
2022/01/02 12:14:06;;;;;;;16.27;3.15;;;12.00;99.90;;;;;;5058512;28;219424;-80
2022/01/02 12:16:41;;;;;;;17.40;4.07;;;12.00;99.90;;;;;;5070559;28;20152;-80
2022/01/02 12:19:09;;;;;;;17.92;3.45;;;12.00;99.90;;;;;;5052581;28;249351;-81
2022/01/02 12:21:36;;;;;;;15.73;3.13;;;12.00;99.90;;;;;;5072348;28;20059;-81
2022/01/02 12:24:12;;;;;;;16.02;3.80;;;11.90;99.90;;;;;;5041453;28;249471;-81
2022/01/02 12:26:39;;;;;;;18.25;3.30;;;11.90;99.90;;;;;;5074778;28;20051;-82
2022/01/02 12:29:10;;;;;;;17.42;3.47;;;11.90;99.90;;;;;;5071396;28;113588;-81
2022/01/02 12:31:43;;;;;;;22.40;4.05;;;12.00;99.90;;;;;;5064765;28;20055;-82
2022/01/02 12:34:20;;;;;;;20.08;4.07;;;12.10;99.90;;;;;;5069001;28;38348;-83
2022/01/02 12:36:52;;;;;;;22.08;4.03;;;12.20;99.90;;;;;;5080437;28;20063;-81
2022/01/02 12:39:29;;;;;;;17.48;3.50;;;12.10;99.90;;;;;;5040911;28;230051;-80
2022/01/02 12:42:08;;;;;;;19.63;3.63;;;12.10;99.90;;;;;;5074003;28;20420;-81
2022/01/02 12:44:35;;;;;;;16.00;3.50;;;12.10;99.90;;;;;;5047872;28;20048;-82
2022/01/02 12:47:05;;;;;;;18.52;3.45;;;12.00;99.90;;;;;;5056808;28;270563;-81
2022/01/02 12:49:33;;;;;;;16.75;3.55;;;12.00;99.90;;;;;;5074349;28;20135;-80
2022/01/02 12:52:03;;;;;;;16.17;3.30;;;12.00;99.90;;;;;;5068444;28;259221;-81